Time;durP1;ratioP1;P1;durP2;ratioP2;P2;SDS_P1;SDS_P2;PMS_P1;PMS_P2;Temp;Humidity;BMP_temperature;BMP_pressure;BME280_temperature;BME280_humidity;BME280_pressure;Samples;Min_cycle;Max_cycle;Signal;HPM_P1;HPM_P2
2022/03/27 00:00:15;;;;;;;1.77;1.65;;;;;;;;;;5095503;28;20123;-62
2022/03/27 00:02:42;;;;;;;1.80;1.38;;;;;;;;;;5095504;28;20380;-62
2022/03/27 00:05:09;;;;;;;2.00;1.30;;;;;;;;;;5095400;28;20040;-62
2022/03/27 00:07:35;;;;;;;1.52;1.23;;;;;;;;;;5094867;28;20078;-62
2022/03/27 00:10:01;;;;;;;1.55;1.33;;;;;;;;;;5095041;28;20074;-63
2022/03/27 00:12:27;;;;;;;1.45;1.20;;;;;;;;;;5095159;28;20044;-62
2022/03/27 00:14:53;;;;;;;3.28;1.50;;;;;;;;;;5095324;28;20441;-62
2022/03/27 00:17:19;;;;;;;1.40;1.30;;;;;;;;;;5095356;28;20101;-62
2022/03/27 00:19:46;;;;;;;2.50;1.48;;;;;;;;;;5095118;28;20375;-61
2022/03/27 00:22:12;;;;;;;1.95;1.40;;;;;;;;;;5095057;28;20040;-62
2022/03/27 00:24:38;;;;;;;1.73;1.50;;;;;;;;;;5094934;28;20127;-62
2022/03/27 00:27:04;;;;;;;1.67;1.33;;;;;;;;;;5095252;28;20051;-62
2022/03/27 00:29:30;;;;;;;1.95;1.50;;;;;;;;;;5094596;28;20487;-62
2022/03/27 00:31:56;;;;;;;1.35;1.25;;;;;;;;;;5095017;28;20052;-62
2022/03/27 00:34:22;;;;;;;1.70;1.40;;;;;;;;;;5094666;28;20048;-62
2022/03/27 00:36:49;;;;;;;1.40;1.30;;;;;;;;;;5095278;28;20040;-62
2022/03/27 00:39:15;;;;;;;1.45;1.35;;;;;;;;;;5094341;28;20055;-62
2022/03/27 00:41:43;;;;;;;1.70;1.42;;;;;;;;;;5094698;28;20127;-62
2022/03/27 00:44:09;;;;;;;1.73;1.30;;;;;;;;;;5094748;28;20510;-62
2022/03/27 00:46:35;;;;;;;1.70;1.40;;;;;;;;;;5094728;28;20044;-62
2022/03/27 00:49:01;;;;;;;2.08;1.23;;;;;;;;;;5094476;28;20123;-62
2022/03/27 00:51:27;;;;;;;1.70;1.40;;;;;;;;;;5094510;28;20044;-62
2022/03/27 00:53:54;;;;;;;1.42;1.30;;;;;;;;;;5094215;28;20040;-62
2022/03/27 00:56:20;;;;;;;1.92;1.60;;;;;;;;;;5094704;28;20044;-62
2022/03/27 00:58:46;;;;;;;1.60;1.50;;;;;;;;;;5094624;28;20048;-62
2022/03/27 01:01:32;;;;;;;1.67;1.50;;;;;;;;;;5094186;28;20044;-62
2022/03/27 01:03:59;;;;;;;1.42;1.33;;;;;;;;;;5074049;28;20533;-62
2022/03/27 01:06:29;;;;;;;1.77;1.20;;;;;;;;;;5078343;28;20048;-62
2022/03/27 01:11:40;;;;;;;1.42;1.25;;;;;;;;;;5087512;28;20400;-62
2022/03/27 01:14:06;;;;;;;1.40;1.30;;;;;;;;;;5094682;28;20093;-62
2022/03/27 01:16:38;;;;;;;1.45;1.20;;;;;;;;;;5094182;28;20060;-62
2022/03/27 01:19:06;;;;;;;1.48;1.30;;;;;;;;;;5094190;28;20040;-62
2022/03/27 01:21:34;;;;;;;2.10;1.40;;;;;;;;;;5093877;28;20115;-62
2022/03/27 01:24:02;;;;;;;1.65;1.27;;;;;;;;;;5094048;28;20043;-62
2022/03/27 01:26:29;;;;;;;1.55;1.30;;;;;;;;;;5093551;28;20036;-62
2022/03/27 01:28:55;;;;;;;1.40;1.20;;;;;;;;;;5093521;28;20043;-63
2022/03/27 01:31:23;;;;;;;1.67;1.55;;;;;;;;;;5093804;28;20047;-62
2022/03/27 01:33:49;;;;;;;1.85;1.50;;;;;;;;;;5093881;28;20036;-62
2022/03/27 01:36:22;;;;;;;1.40;1.30;;;;;;;;;;5093420;28;20040;-63
2022/03/27 01:38:49;;;;;;;1.75;1.30;;;;;;;;;;5093141;28;20403;-62
2022/03/27 01:41:15;;;;;;;1.80;1.40;;;;;;;;;;5090411;28;20040;-63
2022/03/27 01:43:41;;;;;;;1.40;1.30;;;;;;;;;;5093825;28;20058;-62
2022/03/27 01:46:08;;;;;;;1.70;1.50;;;;;;;;;;5093116;28;20044;-62
2022/03/27 01:48:34;;;;;;;2.10;1.50;;;;;;;;;;5093251;28;20109;-62
2022/03/27 01:51:00;;;;;;;1.95;1.55;;;;;;;;;;5093523;28;20048;-62
2022/03/27 01:53:26;;;;;;;1.40;1.30;;;;;;;;;;5093506;28;20047;-62
2022/03/27 01:55:53;;;;;;;1.33;1.20;;;;;;;;;;5093116;28;20031;-62
2022/03/27 01:58:19;;;;;;;1.45;1.30;;;;;;;;;;5093126;28;20048;-62
2022/03/27 02:00:45;;;;;;;1.98;1.70;;;;;;;;;;5092906;28;20126;-62
2022/03/27 02:03:12;;;;;;;1.50;1.40;;;;;;;;;;5093485;28;20095;-62
2022/03/27 02:05:38;;;;;;;1.80;1.40;;;;;;;;;;5075079;28;20475;-62
2022/03/27 02:08:04;;;;;;;2.13;1.33;;;;;;;;;;5093287;28;20494;-62
2022/03/27 02:10:30;;;;;;;1.70;1.60;;;;;;;;;;5092857;28;20051;-62
2022/03/27 02:12:56;;;;;;;2.58;1.60;;;;;;;;;;5093277;28;20040;-62
2022/03/27 02:15:24;;;;;;;1.65;1.52;;;;;;;;;;5092554;28;20039;-62
2022/03/27 02:17:51;;;;;;;2.50;1.88;;;;;;;;;;5093043;28;20051;-61
2022/03/27 02:20:17;;;;;;;1.65;1.55;;;;;;;;;;5092814;28;20442;-62
2022/03/27 02:22:43;;;;;;;1.60;1.50;;;;;;;;;;5074772;28;20338;-62
2022/03/27 02:25:09;;;;;;;2.20;1.70;;;;;;;;;;5092712;28;20040;-63
2022/03/27 02:27:35;;;;;;;1.60;1.50;;;;;;;;;;5092791;28;20040;-62
2022/03/27 02:30:02;;;;;;;2.80;1.73;;;;;;;;;;5092502;28;20052;-62
2022/03/27 02:32:28;;;;;;;1.83;1.55;;;;;;;;;;5093147;28;20062;-62
2022/03/27 02:34:54;;;;;;;1.83;1.65;;;;;;;;;;5092790;28;20410;-62
2022/03/27 02:37:20;;;;;;;1.63;1.52;;;;;;;;;;5092760;28;20146;-62
2022/03/27 02:39:46;;;;;;;2.33;1.90;;;;;;;;;;5092331;28;20064;-62
2022/03/27 02:42:12;;;;;;;3.15;1.92;;;;;;;;;;5092999;28;20131;-62
2022/03/27 02:44:38;;;;;;;2.15;1.80;;;;;;;;;;5092737;28;20042;-62
2022/03/27 02:47:05;;;;;;;2.15;1.70;;;;;;;;;;5092730;28;20086;-62
2022/03/27 02:49:31;;;;;;;2.10;1.80;;;;;;;;;;5075086;28;20042;-62
2022/03/27 02:51:57;;;;;;;2.45;1.98;;;;;;;;;;5092667;28;20048;-62
2022/03/27 02:54:24;;;;;;;2.45;1.90;;;;;;;;;;5092410;28;20122;-62
2022/03/27 02:56:50;;;;;;;2.05;1.70;;;;;;;;;;5092560;28;20044;-62
2022/03/27 02:59:16;;;;;;;2.13;1.70;;;;;;;;;;5092465;28;20376;-62
2022/03/27 03:01:42;;;;;;;2.60;1.80;;;;;;;;;;5092802;28;20505;-62
2022/03/27 03:04:08;;;;;;;1.85;1.65;;;;;;;;;;5092413;28;20051;-62
2022/03/27 03:06:35;;;;;;;2.03;1.60;;;;;;;;;;5092856;28;20482;-61
2022/03/27 03:09:01;;;;;;;2.28;1.85;;;;;;;;;;5092144;28;20048;-61
2022/03/27 03:11:27;;;;;;;2.10;1.75;;;;;;;;;;5092520;28;20040;-62
2022/03/27 03:13:53;;;;;;;2.70;1.85;;;;;;;;;;5096298;28;20047;-62
2022/03/27 03:16:20;;;;;;;3.75;2.08;;;;;;;;;;5096467;28;20394;-62
2022/03/27 03:18:46;;;;;;;2.58;1.98;;;;;;;;;;5088032;28;20070;-62
2022/03/27 03:21:13;;;;;;;2.17;1.60;;;;;;;;;;5096440;28;20101;-63
2022/03/27 03:23:39;;;;;;;2.63;1.92;;;;;;;;;;5096309;28;20051;-62
2022/03/27 03:26:05;;;;;;;2.20;1.80;;;;;;;;;;5096515;28;20089;-61
2022/03/27 03:28:31;;;;;;;3.47;1.95;;;;;;;;;;5095780;28;20131;-61
2022/03/27 03:30:58;;;;;;;2.60;1.70;;;;;;;;;;5077795;28;20415;-62
2022/03/27 03:33:26;;;;;;;2.80;1.73;;;;;;;;;;5096374;28;20051;-61
2022/03/27 03:35:52;;;;;;;2.72;1.90;;;;;;;;;;5096041;28;20044;-62
2022/03/27 03:38:18;;;;;;;2.40;1.65;;;;;;;;;;5096015;28;20036;-62
2022/03/27 03:40:44;;;;;;;2.30;2.00;;;;;;;;;;5085507;28;20059;-62
2022/03/27 03:43:11;;;;;;;2.25;1.90;;;;;;;;;;5095850;28;20055;-62
2022/03/27 03:45:37;;;;;;;2.15;1.90;;;;;;;;;;5095974;28;20054;-62
2022/03/27 03:48:06;;;;;;;2.15;1.80;;;;;;;;;;5095612;28;20515;-62
2022/03/27 03:50:35;;;;;;;2.45;1.83;;;;;;;;;;5096164;28;20044;-62
2022/03/27 03:53:01;;;;;;;1.90;1.70;;;;;;;;;;5095815;28;20390;-62
2022/03/27 03:55:28;;;;;;;2.50;1.70;;;;;;;;;;5095418;28;20039;-62
2022/03/27 03:57:56;;;;;;;2.28;1.83;;;;;;;;;;5095502;28;20391;-61
2022/03/27 04:00:23;;;;;;;2.45;1.70;;;;;;;;;;5095806;28;20048;-62
2022/03/27 04:02:49;;;;;;;2.65;2.00;;;;;;;;;;5095708;28;20043;-62
2022/03/27 04:05:15;;;;;;;2.00;1.80;;;;;;;;;;5095484;28;20048;-61
2022/03/27 04:07:41;;;;;;;2.83;1.92;;;;;;;;;;5095511;28;20043;-62
2022/03/27 04:10:07;;;;;;;1.90;1.63;;;;;;;;;;5095265;28;20451;-61
2022/03/27 04:12:33;;;;;;;2.83;1.80;;;;;;;;;;5095162;28;20457;-62
2022/03/27 04:14:59;;;;;;;2.75;1.85;;;;;;;;;;5095411;28;20415;-61
2022/03/27 04:17:26;;;;;;;3.22;2.08;;;;;;;;;;5095312;28;20097;-62
2022/03/27 04:19:52;;;;;;;2.95;1.88;;;;;;;;;;5095251;28;20043;-61
2022/03/27 04:22:18;;;;;;;2.03;1.70;;;;;;;;;;5095432;28;20051;-62
2022/03/27 04:24:44;;;;;;;3.05;1.98;;;;;;;;;;5094774;28;20531;-62
2022/03/27 04:27:10;;;;;;;2.10;1.70;;;;;;;;;;5095102;28;20036;-62
2022/03/27 04:29:36;;;;;;;2.38;1.75;;;;;;;;;;5094805;28;20574;-62
2022/03/27 04:32:02;;;;;;;2.83;1.80;;;;;;;;;;5095028;28;20040;-62
2022/03/27 04:34:29;;;;;;;3.35;2.00;;;;;;;;;;5094771;28;20347;-62
2022/03/27 04:36:55;;;;;;;3.60;1.90;;;;;;;;;;5094899;28;20105;-62
2022/03/27 04:39:22;;;;;;;2.85;2.00;;;;;;;;;;5094535;28;20056;-62
2022/03/27 04:41:48;;;;;;;2.13;1.73;;;;;;;;;;5097098;28;20123;-62
2022/03/27 04:44:15;;;;;;;2.53;1.77;;;;;;;;;;5097992;28;20384;-62
2022/03/27 04:46:41;;;;;;;2.75;1.88;;;;;;;;;;5095560;28;20048;-62
2022/03/27 04:49:07;;;;;;;2.10;1.58;;;;;;;;;;5094753;28;20085;-62
2022/03/27 04:51:33;;;;;;;2.95;2.03;;;;;;;;;;5094320;28;20040;-62
2022/03/27 04:53:59;;;;;;;3.00;2.08;;;;;;;;;;5094465;28;20455;-62
2022/03/27 04:56:25;;;;;;;2.67;1.70;;;;;;;;;;5095048;28;20044;-62
2022/03/27 04:58:51;;;;;;;3.53;1.90;;;;;;;;;;5094562;28;20036;-62
2022/03/27 05:01:17;;;;;;;4.53;2.20;;;;;;;;;;5094642;28;20040;-62
2022/03/27 05:03:43;;;;;;;2.92;1.90;;;;;;;;;;5094614;28;20445;-61
2022/03/27 05:06:10;;;;;;;2.63;1.90;;;;;;;;;;5094366;28;20080;-61
2022/03/27 05:08:36;;;;;;;3.30;1.95;;;;;;;;;;5094352;28;20122;-61
2022/03/27 05:11:02;;;;;;;3.03;1.90;;;;;;;;;;5093441;28;20522;-62
2022/03/27 05:13:29;;;;;;;3.75;2.00;;;;;;;;;;5094318;28;20522;-61
2022/03/27 05:15:55;;;;;;;2.50;1.70;;;;;;;;;;5093975;28;20437;-62
2022/03/27 05:18:21;;;;;;;3.00;2.00;;;;;;;;;;5094248;28;20044;-61
2022/03/27 05:20:47;;;;;;;4.78;2.20;;;;;;;;;;5094082;28;20124;-61
2022/03/27 05:23:13;;;;;;;3.92;2.10;;;;;;;;;;5095662;28;20044;-61
2022/03/27 05:25:45;;;;;;;4.15;2.20;;;;;;;;;;5094334;28;20510;-62
2022/03/27 05:28:11;;;;;;;3.45;2.13;;;;;;;;;;5093869;28;20044;-62
2022/03/27 05:30:38;;;;;;;2.97;1.90;;;;;;;;;;5093760;28;20134;-61
2022/03/27 05:33:04;;;;;;;3.78;1.92;;;;;;;;;;5094040;28;20052;-62
2022/03/27 05:35:31;;;;;;;4.03;2.10;;;;;;;;;;5092901;28;20380;-62
2022/03/27 05:37:58;;;;;;;4.22;2.28;;;;;;;;;;5093886;28;20070;-62
2022/03/27 05:40:25;;;;;;;4.05;2.00;;;;;;;;;;5094219;28;20055;-62
2022/03/27 05:42:51;;;;;;;3.75;2.10;;;;;;;;;;5093338;28;20142;-61
2022/03/27 05:45:18;;;;;;;3.85;2.30;;;;;;;;;;5094138;28;20044;-62
2022/03/27 05:47:44;;;;;;;4.38;2.28;;;;;;;;;;5093627;28;20058;-62
2022/03/27 05:50:11;;;;;;;3.58;2.15;;;;;;;;;;5093676;28;20044;-61
2022/03/27 05:52:38;;;;;;;4.00;2.10;;;;;;;;;;5093220;28;20494;-61
2022/03/27 05:55:05;;;;;;;4.88;2.33;;;;;;;;;;5093573;28;20048;-62
2022/03/27 05:57:31;;;;;;;3.63;2.20;;;;;;;;;;5093410;28;20038;-61
2022/03/27 05:59:57;;;;;;;3.53;2.00;;;;;;;;;;5093133;28;20044;-61
2022/03/27 06:02:23;;;;;;;4.10;2.10;;;;;;;;;;5093288;28;20047;-61
2022/03/27 06:04:51;;;;;;;3.90;2.00;;;;;;;;;;5093502;28;20494;-61
2022/03/27 06:07:17;;;;;;;2.38;1.83;;;;;;;;;;5093531;28;20043;-61
2022/03/27 06:09:43;;;;;;;4.07;2.17;;;;;;;;;;5093377;28;20383;-61
2022/03/27 06:12:10;;;;;;;2.42;1.85;;;;;;;;;;5092929;28;20048;-62
2022/03/27 06:14:36;;;;;;;4.93;2.22;;;;;;;;;;5093033;28;20461;-61
2022/03/27 06:17:03;;;;;;;3.92;2.20;;;;;;;;;;5093088;28;20079;-62
2022/03/27 06:19:30;;;;;;;3.30;2.10;;;;;;;;;;5093327;28;20048;-61
2022/03/27 06:21:57;;;;;;;4.03;2.10;;;;;;;;;;5093064;28;20543;-61
2022/03/27 06:24:23;;;;;;;4.50;2.40;;;;;;;;;;5092943;28;20052;-61
2022/03/27 06:26:49;;;;;;;3.33;2.10;;;;;;;;;;5092654;28;20047;-62
2022/03/27 06:29:15;;;;;;;3.63;2.00;;;;;;;;;;5092584;28;20116;-61
2022/03/27 06:31:41;;;;;;;5.65;4.30;;;;;;;;;;5093434;28;20051;-62
2022/03/27 06:34:07;;;;;;;4.35;3.13;;;;;;;;;;5075121;28;20044;-62
2022/03/27 06:36:34;;;;;;;4.32;2.72;;;;;;;;;;5093141;28;20135;-62
2022/03/27 06:39:00;;;;;;;3.75;2.60;;;;;;;;;;5092769;28;20048;-61
2022/03/27 06:41:27;;;;;;;5.15;2.95;;;;;;;;;;5092531;28;20487;-62
2022/03/27 06:43:53;;;;;;;4.32;2.60;;;;;;;;;;5092874;28;20044;-62
2022/03/27 06:46:19;;;;;;;4.30;2.50;;;;;;;;;;5093624;28;20133;-62
2022/03/27 06:48:46;;;;;;;3.97;2.42;;;;;;;;;;5096905;28;20489;-62
2022/03/27 06:51:13;;;;;;;4.70;2.75;;;;;;;;;;5097041;28;20047;-61
2022/03/27 06:53:39;;;;;;;3.97;2.65;;;;;;;;;;5096950;28;20036;-62
2022/03/27 06:56:06;;;;;;;5.07;2.63;;;;;;;;;;5096664;28;20054;-62
2022/03/27 06:58:32;;;;;;;4.57;2.40;;;;;;;;;;5096785;28;20456;-62
2022/03/27 07:03:43;;;;;;;3.58;2.50;;;;;;;;;;5097010;28;20048;-61
2022/03/27 07:06:10;;;;;;;3.75;2.50;;;;;;;;;;5096709;28;20056;-61
2022/03/27 07:08:37;;;;;;;7.03;2.70;;;;;;;;;;5096373;28;20123;-61
2022/03/27 07:11:03;;;;;;;4.90;2.63;;;;;;;;;;5096682;28;20044;-62
2022/03/27 07:13:30;;;;;;;5.43;2.83;;;;;;;;;;5097187;28;20070;-62
2022/03/27 07:15:57;;;;;;;5.40;2.90;;;;;;;;;;5097279;28;20048;-62
2022/03/27 07:18:24;;;;;;;6.00;3.08;;;;;;;;;;5096477;28;20094;-62
2022/03/27 07:20:50;;;;;;;5.88;3.20;;;;;;;;;;5096420;28;20051;-62
2022/03/27 07:23:20;;;;;;;5.25;3.10;;;;;;;;;;5096461;28;20051;-63
2022/03/27 07:25:47;;;;;;;9.35;3.10;;;;;;;;;;5096070;28;20483;-63
2022/03/27 07:28:14;;;;;;;5.82;2.83;;;;;;;;;;5096334;28;20044;-63
2022/03/27 07:30:41;;;;;;;5.93;2.75;;;;;;;;;;5096094;28;20437;-62
2022/03/27 07:33:07;;;;;;;6.63;2.90;;;;;;;;;;5096345;28;20044;-63
2022/03/27 07:35:34;;;;;;;4.40;2.67;;;;;;;;;;5096169;28;20044;-63
2022/03/27 07:38:00;;;;;;;5.57;2.70;;;;;;;;;;5096072;28;20043;-63
2022/03/27 07:40:27;;;;;;;4.95;2.95;;;;;;;;;;5096324;28;20047;-63
2022/03/27 07:42:54;;;;;;;5.30;2.70;;;;;;;;;;5096014;28;20070;-63
2022/03/27 07:45:21;;;;;;;5.85;2.78;;;;;;;;;;5095508;28;20479;-63
2022/03/27 07:47:48;;;;;;;6.20;2.60;;;;;;;;;;5096217;28;20122;-63
2022/03/27 07:50:14;;;;;;;6.10;2.60;;;;;;;;;;5094506;28;20512;-62
2022/03/27 07:52:41;;;;;;;5.38;2.80;;;;;;;;;;5095454;28;20039;-62
2022/03/27 07:55:08;;;;;;;3.70;2.25;;;;;;;;;;5095554;28;20036;-63
2022/03/27 07:57:34;;;;;;;5.15;2.45;;;;;;;;;;5094823;28;20398;-63
2022/03/27 08:00:01;;;;;;;5.78;2.45;;;;;;;;;;5095531;28;20052;-63
2022/03/27 08:02:27;;;;;;;4.80;2.50;;;;;;;;;;5095631;28;20040;-63
2022/03/27 08:04:53;;;;;;;6.40;2.70;;;;;;;;;;5094159;28;20059;-63
2022/03/27 08:07:19;;;;;;;4.80;2.60;;;;;;;;;;5095761;28;20568;-63
2022/03/27 08:09:45;;;;;;;5.13;2.53;;;;;;;;;;5090239;28;20044;-63
2022/03/27 08:12:11;;;;;;;8.07;2.70;;;;;;;;;;5088825;28;20044;-63
2022/03/27 08:14:38;;;;;;;5.90;2.92;;;;;;;;;;5095447;28;20074;-63
2022/03/27 08:17:04;;;;;;;4.75;2.60;;;;;;;;;;5095086;28;20124;-63
2022/03/27 08:19:30;;;;;;;4.97;2.60;;;;;;;;;;5059775;28;20089;-63
2022/03/27 08:21:56;;;;;;;5.47;2.55;;;;;;;;;;5057269;28;20106;-63
2022/03/27 08:24:23;;;;;;;5.38;2.35;;;;;;;;;;5074946;28;20055;-63
2022/03/27 08:27:04;;;;;;;5.35;2.53;;;;;;;;;;5080284;28;20060;-63
2022/03/27 08:29:31;;;;;;;6.85;2.75;;;;;;;;;;5093742;28;20091;-63
2022/03/27 08:32:01;;;;;;;9.20;3.00;;;;;;;;;;5091739;28;20048;-63
2022/03/27 08:34:28;;;;;;;6.47;2.67;;;;;;;;;;5095392;28;20047;-63
2022/03/27 08:36:55;;;;;;;5.60;2.97;;;;;;;;;;5095755;28;20162;-63
2022/03/27 08:39:21;;;;;;;10.60;3.28;;;;;;;;;;5094902;28;20051;-61
2022/03/27 08:41:49;;;;;;;8.27;3.20;;;;;;;;;;5091447;28;20468;-62
2022/03/27 08:44:18;;;;;;;8.10;2.72;;;;;;;;;;5082660;28;20052;-63
2022/03/27 08:46:45;;;;;;;10.15;3.10;;;;;;;;;;5094174;28;20058;-62
2022/03/27 08:49:26;;;;;;;6.28;2.90;;;;;;;;;;5094016;28;20363;-62
2022/03/27 08:51:52;;;;;;;7.65;2.88;;;;;;;;;;5093732;28;20486;-62
2022/03/27 08:54:20;;;;;;;8.70;2.55;;;;;;;;;;5094754;28;20119;-62
2022/03/27 08:57:02;;;;;;;6.40;2.60;;;;;;;;;;5094445;28;20395;-62
2022/03/27 08:59:29;;;;;;;12.05;3.17;;;;;;;;;;5093213;28;20051;-63
2022/03/27 09:01:55;;;;;;;6.95;2.75;;;;;;;;;;5076006;28;20047;-62
2022/03/27 09:04:21;;;;;;;9.00;2.72;;;;;;;;;;5094095;28;20387;-63
2022/03/27 09:06:47;;;;;;;5.80;2.80;;;;;;;;;;5094580;28;20040;-63
2022/03/27 09:09:13;;;;;;;7.43;2.60;;;;;;;;;;5094266;28;20039;-63
2022/03/27 09:11:39;;;;;;;5.50;2.50;;;;;;;;;;5094379;28;20044;-63
2022/03/27 09:14:08;;;;;;;6.68;2.72;;;;;;;;;;5094775;28;20082;-63
2022/03/27 09:16:52;;;;;;;6.97;2.42;;;;;;;;;;5094584;28;20047;-63
2022/03/27 09:19:31;;;;;;;6.50;2.80;;;;;;;;;;5094267;28;20040;-63
2022/03/27 09:21:59;;;;;;;5.38;2.50;;;;;;;;;;5094428;28;20067;-63
2022/03/27 09:24:32;;;;;;;5.60;2.60;;;;;;;;;;5094360;28;20056;-63
2022/03/27 09:27:00;;;;;;;4.90;2.47;;;;;;;;;;5076341;28;20044;-62
2022/03/27 09:29:26;;;;;;;6.63;2.40;;;;;;;;;;5094189;28;20056;-62
2022/03/27 09:31:58;;;;;;;5.65;2.35;;;;;;;;;;5093842;28;20036;-62
2022/03/27 09:34:24;;;;;;;5.03;2.45;;;;;;;;;;5093811;28;20086;-61
2022/03/27 09:36:51;;;;;;;7.20;2.85;;;;;;;;;;5094102;28;20048;-62
2022/03/27 09:39:19;;;;;;;6.65;2.33;;;;;;;;;;5093937;28;20048;-62
2022/03/27 09:41:47;;;;;;;4.55;2.47;;;;;;;;;;5093710;28;20052;-62
2022/03/27 09:44:14;;;;;;;5.13;2.50;;;;;;;;;;5094009;28;20075;-62
2022/03/27 09:46:52;;;;;;;6.75;2.50;;;;;;;;;;5093935;28;20044;-62
2022/03/27 09:49:20;;;;;;;5.20;2.60;;;;;;;;;;5093771;28;20040;-62
2022/03/27 09:51:53;;;;;;;4.72;2.40;;;;;;;;;;5093274;28;20560;-62
2022/03/27 09:54:21;;;;;;;6.90;2.58;;;;;;;;;;5093780;28;20075;-62
2022/03/27 09:56:47;;;;;;;5.80;2.47;;;;;;;;;;5093798;28;20398;-62
2022/03/27 09:59:30;;;;;;;5.43;2.72;;;;;;;;;;5094100;28;20047;-62
2022/03/27 10:02:15;;;;;;;6.85;2.78;;;;;;;;;;5093452;28;20506;-62
2022/03/27 10:05:01;;;;;;;6.80;2.80;;;;;;;;;;5093153;28;20074;-61
2022/03/27 10:07:32;;;;;;;7.30;3.10;;;;;;;;;;5093775;28;20452;-61
2022/03/27 10:09:58;;;;;;;7.45;2.58;;;;;;;;;;5093504;28;20044;-64
2022/03/27 10:12:29;;;;;;;7.93;2.53;;;;;;;;;;5098375;28;20491;-63
2022/03/27 10:14:59;;;;;;;5.03;2.55;;;;;;;;;;5092829;28;20040;-62
2022/03/27 10:17:27;;;;;;;5.43;2.50;;;;;;;;;;5093397;28;20044;-63
2022/03/27 10:19:54;;;;;;;4.75;2.40;;;;;;;;;;5093071;28;20090;-63
2022/03/27 10:22:21;;;;;;;4.88;2.58;;;;;;;;;;5092535;28;20509;-62
2022/03/27 10:24:51;;;;;;;7.97;3.10;;;;;;;;;;5093133;28;20040;-62
2022/03/27 10:27:18;;;;;;;5.40;2.83;;;;;;;;;;5093108;28;20127;-62
2022/03/27 10:29:44;;;;;;;7.57;2.95;;;;;;;;;;5092959;28;20056;-63
2022/03/27 10:32:12;;;;;;;5.95;2.63;;;;;;;;;;5071888;28;20586;-63
2022/03/27 10:34:43;;;;;;;8.68;2.72;;;;;;;;;;5072594;28;20049;-63
2022/03/27 10:37:09;;;;;;;8.43;3.00;;;;;;;;;;5072830;28;20089;-63
2022/03/27 10:39:49;;;;;;;8.73;3.10;;;;;;;;;;5072916;28;20053;-62
2022/03/27 10:42:19;;;;;;;6.80;2.60;;;;;;;;;;5072681;28;20044;-62
2022/03/27 10:45:03;;;;;;;7.40;2.63;;;;;;;;;;5072868;28;20046;-62
2022/03/27 10:47:30;;;;;;;6.30;2.83;;;;;;;;;;5073043;28;20040;-62
2022/03/27 10:50:02;;;;;;;6.07;2.78;;;;;;;;;;5072449;28;20053;-63
2022/03/27 10:52:30;;;;;;;8.65;2.90;;;;;;;;;;5072832;28;20044;-63
2022/03/27 10:55:00;;;;;;;8.88;3.05;;;;;;;;;;5072568;28;20516;-62
2022/03/27 10:57:34;;;;;;;8.38;3.08;;;;;;;;;;5073051;28;20053;-62
2022/03/27 11:00:00;;;;;;;6.93;2.63;;;;;;;;;;5072617;28;20406;-62
2022/03/27 11:02:45;;;;;;;6.60;2.92;;;;;;;;;;5072446;28;20109;-63
2022/03/27 11:05:34;;;;;;;5.85;2.80;;;;;;;;;;5072917;28;20045;-62
2022/03/27 11:08:19;;;;;;;5.20;2.60;;;;;;;;;;5072840;28;20522;-62
2022/03/27 11:10:51;;;;;;;6.03;2.72;;;;;;;;;;5072492;28;20083;-63
2022/03/27 11:13:26;;;;;;;6.53;2.58;;;;;;;;;;5072214;28;20384;-63
2022/03/27 11:16:05;;;;;;;4.57;2.55;;;;;;;;;;5072349;28;20040;-62
2022/03/27 11:18:35;;;;;;;12.30;8.27;;;;;;;;;;5080150;28;20056;-63
2022/03/27 11:21:01;;;;;;;20.45;15.45;;;;;;;;;;5071806;28;20098;-62
2022/03/27 11:23:28;;;;;;;16.80;10.38;;;;;;;;;;5072528;28;20403;-62
2022/03/27 11:25:55;;;;;;;12.18;8.27;;;;;;;;;;5072419;28;20102;-61
2022/03/27 11:28:21;;;;;;;11.20;7.70;;;;;;;;;;5072533;28;20044;-62
2022/03/27 11:30:50;;;;;;;13.30;7.63;;;;;;;;;;5072490;28;20056;-64
2022/03/27 11:33:26;;;;;;;11.85;6.78;;;;;;;;;;5073410;28;20044;-62
2022/03/27 11:36:01;;;;;;;11.55;6.72;;;;;;;;;;5076104;28;20128;-62
2022/03/27 11:38:29;;;;;;;10.55;6.70;;;;;;;;;;5075677;28;20056;-61
2022/03/27 11:40:55;;;;;;;13.85;8.75;;;;;;;;;;5075206;28;20471;-61
2022/03/27 11:43:27;;;;;;;23.55;15.80;;;;;;;;;;5075842;28;20036;-61
2022/03/27 11:45:55;;;;;;;22.35;16.85;;;;;;;;;;5076023;28;20040;-61
2022/03/27 11:48:21;;;;;;;21.02;14.00;;;;;;;;;;5075806;28;20052;-61
2022/03/27 11:50:47;;;;;;;18.13;12.25;;;;;;;;;;5075637;28;20110;-62
2022/03/27 11:53:14;;;;;;;16.02;11.05;;;;;;;;;;5075629;28;20044;-62
2022/03/27 11:55:40;;;;;;;18.90;11.77;;;;;;;;;;5075363;28;20124;-62
2022/03/27 11:58:07;;;;;;;15.32;11.48;;;;;;;;;;5075508;28;20498;-62
2022/03/27 12:00:36;;;;;;;16.15;11.00;;;;;;;;;;5075741;28;20037;-61
2022/03/27 12:03:04;;;;;;;16.90;10.88;;;;;;;;;;5075708;28;20062;-62
2022/03/27 12:05:37;;;;;;;19.23;10.82;;;;;;;;;;5074283;28;20087;-62
2022/03/27 12:08:04;;;;;;;14.52;9.93;;;;;;;;;;5074515;28;20041;-63
2022/03/27 12:10:39;;;;;;;16.20;9.73;;;;;;;;;;5075077;28;20079;-63
2022/03/27 12:13:08;;;;;;;13.53;10.10;;;;;;;;;;5072060;28;20488;-63
2022/03/27 12:15:39;;;;;;;14.88;9.32;;;;;;;;;;5055722;28;20098;-62
2022/03/27 12:18:05;;;;;;;13.30;9.38;;;;;;;;;;5055307;28;20049;-63
2022/03/27 12:20:48;;;;;;;14.57;8.75;;;;;;;;;;5074433;28;20086;-63
2022/03/27 12:23:28;;;;;;;12.57;8.05;;;;;;;;;;5087395;28;20490;-62
2022/03/27 12:25:58;;;;;;;12.25;8.30;;;;;;;;;;5078530;28;20055;-63
2022/03/27 12:31:19;;;;;;;13.70;8.05;;;;;;;;;;5074203;28;20048;-63
2022/03/27 12:33:45;;;;;;;11.23;7.35;;;;;;;;;;5075482;28;20048;-62
2022/03/27 12:36:13;;;;;;;11.85;7.57;;;;;;;;;;5074670;28;20089;-63
2022/03/27 12:38:39;;;;;;;14.90;7.40;;;;;;;;;;5074991;28;20399;-63
2022/03/27 12:41:08;;;;;;;12.48;7.45;;;;;;;;;;5074226;28;20098;-63
2022/03/27 12:43:34;;;;;;;9.25;6.57;;;;;;;;;;5055036;28;20049;-62
2022/03/27 12:46:17;;;;;;;12.35;7.60;;;;;;;;;;5054782;28;20487;-63
2022/03/27 12:48:43;;;;;;;11.43;6.85;;;;;;;;;;5060637;28;20041;-63
2022/03/27 12:51:12;;;;;;;12.25;6.72;;;;;;;;;;5054798;28;20492;-63
2022/03/27 12:53:38;;;;;;;11.00;7.22;;;;;;;;;;5054703;28;20396;-63
2022/03/27 12:56:11;;;;;;;13.20;6.68;;;;;;;;;;5068765;28;20043;-63
2022/03/27 12:58:38;;;;;;;11.57;6.35;;;;;;;;;;5084002;28;20395;-63
2022/03/27 13:01:05;;;;;;;10.43;6.55;;;;;;;;;;5084605;28;20403;-63
2022/03/27 13:03:31;;;;;;;10.18;5.93;;;;;;;;;;5056792;28;20049;-62
2022/03/27 13:05:57;;;;;;;9.48;6.22;;;;;;;;;;5055287;28;20064;-63
2022/03/27 13:08:26;;;;;;;11.75;6.30;;;;;;;;;;5060471;28;20438;-63
2022/03/27 13:10:56;;;;;;;8.93;5.78;;;;;;;;;;5062415;28;20119;-63
2022/03/27 13:13:31;;;;;;;9.38;5.93;;;;;;;;;;5071008;28;20036;-63
2022/03/27 13:15:58;;;;;;;10.15;5.88;;;;;;;;;;5074609;28;20063;-62
2022/03/27 13:18:33;;;;;;;9.88;6.07;;;;;;;;;;5073029;28;20050;-63
2022/03/27 13:21:13;;;;;;;8.57;5.88;;;;;;;;;;5056646;28;20080;-63
2022/03/27 13:23:39;;;;;;;9.65;5.40;;;;;;;;;;5065571;28;20040;-63
2022/03/27 13:26:05;;;;;;;8.73;5.43;;;;;;;;;;5056373;28;20044;-63
2022/03/27 13:28:31;;;;;;;10.18;5.82;;;;;;;;;;5073484;28;20045;-63
2022/03/27 13:30:58;;;;;;;8.73;5.25;;;;;;;;;;5061486;28;20057;-62
2022/03/27 13:33:24;;;;;;;9.90;5.53;;;;;;;;;;5060626;28;20047;-62
2022/03/27 13:35:50;;;;;;;11.75;5.82;;;;;;;;;;5055958;28;20048;-63
2022/03/27 13:38:16;;;;;;;10.73;4.80;;;;;;;;;;5059651;28;20045;-63
2022/03/27 13:43:27;;;;;;;7.78;4.72;;;;;;;;;;5073920;28;20052;-62
2022/03/27 13:45:53;;;;;;;10.07;4.80;;;;;;;;;;5073772;28;20083;-62
2022/03/27 13:48:19;;;;;;;8.05;4.90;;;;;;;;;;5049031;28;20045;-63
2022/03/27 13:50:46;;;;;;;9.15;4.72;;;;;;;;;;5053633;28;20049;-62
2022/03/27 13:53:12;;;;;;;9.65;4.85;;;;;;;;;;5073367;28;20446;-62
2022/03/27 13:55:38;;;;;;;9.23;5.10;;;;;;;;;;5072933;28;20384;-62
2022/03/27 13:58:04;;;;;;;9.48;4.88;;;;;;;;;;5072609;28;20047;-62
2022/03/27 14:00:32;;;;;;;7.45;4.22;;;;;;;;;;5073679;28;20487;-62
2022/03/27 14:02:58;;;;;;;7.25;4.55;;;;;;;;;;5054663;28;20045;-63
2022/03/27 14:05:24;;;;;;;8.98;4.70;;;;;;;;;;5053483;28;20049;-62
2022/03/27 14:07:50;;;;;;;9.35;4.60;;;;;;;;;;5063148;28;20048;-63
2022/03/27 14:10:16;;;;;;;7.50;4.13;;;;;;;;;;5053299;28;20055;-62
2022/03/27 14:12:42;;;;;;;8.98;4.60;;;;;;;;;;5053428;28;20041;-62
2022/03/27 14:15:09;;;;;;;8.35;4.88;;;;;;;;;;5053208;28;20041;-62
2022/03/27 14:17:35;;;;;;;8.10;4.40;;;;;;;;;;5060255;28;20032;-63
2022/03/27 14:20:01;;;;;;;8.45;4.60;;;;;;;;;;5055583;28;20052;-63
2022/03/27 14:22:27;;;;;;;8.48;4.28;;;;;;;;;;5072740;28;20048;-63
2022/03/27 14:24:54;;;;;;;9.50;4.72;;;;;;;;;;5073147;28;20047;-62
2022/03/27 14:27:20;;;;;;;7.80;4.45;;;;;;;;;;5068141;28;20130;-63
2022/03/27 14:29:46;;;;;;;7.70;4.00;;;;;;;;;;5053027;28;20142;-63
2022/03/27 14:32:12;;;;;;;8.32;3.88;;;;;;;;;;5053076;28;20045;-62
2022/03/27 14:34:38;;;;;;;7.18;4.20;;;;;;;;;;5053127;28;20055;-63
2022/03/27 14:37:05;;;;;;;6.40;3.70;;;;;;;;;;5055212;28;20049;-62
2022/03/27 14:39:31;;;;;;;6.95;4.00;;;;;;;;;;5072954;28;20055;-63
2022/03/27 14:41:57;;;;;;;6.90;4.13;;;;;;;;;;5072966;28;20131;-62
2022/03/27 14:44:26;;;;;;;6.28;3.60;;;;;;;;;;5073186;28;20041;-62
2022/03/27 14:46:52;;;;;;;7.93;3.75;;;;;;;;;;5072250;28;20054;-63
2022/03/27 14:49:18;;;;;;;6.43;3.92;;;;;;;;;;5073164;28;20044;-63
2022/03/27 14:51:44;;;;;;;7.63;3.97;;;;;;;;;;5072736;28;20040;-62
2022/03/27 14:56:57;;;;;;;6.90;4.35;;;;;;;;;;5072219;28;20057;-64